createdAt,value
2018-05-09T00:01:50.996Z,19.98
2018-05-09T00:04:18.590Z,19.82
2018-05-09T00:06:46.237Z,19.85
2018-05-09T00:09:13.833Z,19.84
2018-05-09T00:11:41.465Z,19.85
2018-05-09T00:14:09.065Z,19.85
2018-05-09T00:16:36.692Z,19.79
2018-05-09T00:19:04.277Z,19.78
2018-05-09T00:21:31.917Z,19.78
2018-05-09T00:23:59.558Z,19.75
2018-05-09T00:26:27.140Z,19.79
2018-05-09T00:28:54.783Z,19.77
2018-05-09T00:31:22.494Z,19.72
2018-05-09T00:33:50.112Z,19.71
2018-05-09T00:36:17.738Z,19.74
2018-05-09T00:38:45.381Z,19.71
2018-05-09T00:41:12.975Z,19.68
2018-05-09T00:43:40.625Z,19.52
2018-05-09T00:46:08.213Z,19.34
2018-05-09T00:48:35.854Z,19.22
2018-05-09T00:51:03.485Z,19.20
2018-05-09T00:53:31.133Z,19.15
2018-05-09T00:55:58.737Z,19.21
2018-05-09T00:58:26.417Z,19.27
2018-05-09T01:00:54.019Z,19.31
2018-05-09T01:03:21.657Z,19.41
2018-05-09T01:05:49.257Z,19.29
2018-05-09T01:08:16.900Z,19.38
2018-05-09T01:10:44.544Z,19.25
2018-05-09T01:13:12.166Z,19.26
2018-05-09T01:15:39.797Z,19.25
2018-05-09T01:18:07.402Z,19.15
2018-05-09T01:20:35.024Z,19.17
2018-05-09T01:23:02.631Z,19.12
2018-05-09T01:25:30.304Z,19.21
2018-05-09T01:27:57.889Z,19.18
2018-05-09T01:30:25.509Z,19.20
2018-05-09T01:32:53.102Z,19.25
2018-05-09T01:35:20.733Z,19.20
2018-05-09T01:37:48.342Z,19.22
2018-05-09T01:40:15.994Z,19.16
2018-05-09T01:42:43.604Z,19.16
2018-05-09T01:45:11.224Z,19.17
2018-05-09T01:47:38.804Z,19.16
2018-05-09T01:50:06.444Z,19.11
2018-05-09T01:52:34.134Z,19.09
2018-05-09T01:55:01.861Z,19.05
2018-05-09T01:57:29.387Z,18.91
2018-05-09T01:59:57.022Z,18.94
2018-05-09T02:02:24.617Z,18.96
2018-05-09T02:04:52.330Z,18.93
2018-05-09T02:07:19.940Z,18.77
2018-05-09T02:09:47.551Z,18.79
2018-05-09T02:12:15.186Z,18.80
2018-05-09T02:14:42.770Z,18.67
2018-05-09T02:17:10.409Z,18.56
2018-05-09T02:19:37.993Z,18.38
2018-05-09T02:22:05.661Z,18.35
2018-05-09T02:24:33.339Z,18.42
2018-05-09T02:27:01.032Z,18.40
2018-05-09T02:29:28.599Z,18.34
2018-05-09T02:31:56.302Z,18.30
2018-05-09T02:34:23.878Z,18.23
2018-05-09T02:36:51.536Z,18.23
2018-05-09T02:39:19.127Z,18.18
2018-05-09T02:41:46.763Z,18.00
2018-05-09T02:44:14.387Z,17.95
2018-05-09T02:46:42.003Z,17.87
2018-05-09T02:49:09.649Z,17.75
2018-05-09T02:51:37.296Z,17.60
2018-05-09T02:54:04.946Z,17.60
2018-05-09T02:56:32.531Z,17.44
2018-05-09T02:59:00.283Z,17.53
2018-05-09T03:01:27.894Z,17.38
2018-05-09T03:03:55.536Z,17.48
2018-05-09T03:06:23.161Z,17.49
2018-05-09T03:08:50.810Z,17.34
2018-05-09T03:11:18.527Z,17.30
2018-05-09T03:13:46.183Z,17.22
2018-05-09T03:16:13.801Z,17.10
2018-05-09T03:18:41.443Z,17.15
2018-05-09T03:21:09.029Z,17.16
2018-05-09T03:23:36.684Z,17.29
2018-05-09T03:26:04.277Z,17.27
2018-05-09T03:28:31.934Z,17.31
2018-05-09T03:30:59.527Z,17.00
2018-05-09T03:33:27.187Z,17.06
2018-05-09T03:35:54.874Z,17.06
2018-05-09T03:38:22.486Z,16.96
2018-05-09T03:40:50.120Z,16.95
2018-05-09T03:43:17.749Z,16.90
2018-05-09T03:45:45.392Z,17.02
2018-05-09T03:48:13.096Z,16.90
2018-05-09T03:50:40.757Z,16.93
2018-05-09T03:53:08.408Z,16.91
2018-05-09T03:55:36.069Z,16.83
2018-05-09T03:58:03.792Z,16.77
2018-05-09T04:00:31.485Z,16.77
2018-05-09T04:03:10.778Z,16.82
2018-05-09T04:05:50.429Z,16.71
2018-05-09T04:08:31.302Z,16.71
2018-05-09T04:10:59.029Z,16.89
2018-05-09T04:13:26.647Z,16.88
2018-05-09T04:15:54.386Z,16.86
2018-05-09T04:18:22.023Z,16.84
2018-05-09T04:20:49.808Z,16.94
2018-05-09T04:23:17.365Z,16.93
2018-05-09T04:25:45.012Z,16.98
2018-05-09T04:28:12.752Z,16.85
2018-05-09T04:30:40.485Z,16.85
2018-05-09T04:33:08.214Z,16.85
2018-05-09T04:35:35.814Z,16.88
2018-05-09T04:38:03.493Z,16.96
2018-05-09T04:40:31.179Z,16.93
2018-05-09T04:42:58.818Z,16.84
2018-05-09T04:45:26.507Z,16.92
2018-05-09T04:47:55.094Z,16.95
2018-05-09T04:50:22.722Z,16.99
2018-05-09T04:52:50.369Z,16.93
2018-05-09T04:55:18.180Z,16.99
2018-05-09T04:57:45.893Z,17.04
2018-05-09T05:00:13.697Z,17.17
2018-05-09T05:02:41.316Z,17.18
2018-05-09T05:05:09.000Z,17.19
2018-05-09T05:07:36.601Z,17.24
2018-05-09T05:10:04.249Z,17.25
2018-05-09T05:12:32.499Z,17.38
2018-05-09T05:15:00.153Z,17.44
2018-05-09T05:17:27.739Z,17.53
2018-05-09T05:19:55.365Z,17.59
2018-05-09T05:22:22.964Z,17.69
2018-05-09T05:24:50.673Z,17.78
2018-05-09T05:27:18.310Z,17.87
2018-05-09T05:29:45.992Z,17.96
2018-05-09T05:32:13.629Z,18.08
2018-05-09T05:34:41.334Z,18.17
2018-05-09T05:37:09.017Z,18.29
2018-05-09T05:39:36.592Z,18.35
2018-05-09T05:42:04.227Z,18.49
2018-05-09T05:44:31.820Z,18.58
2018-05-09T05:46:59.494Z,18.59
2018-05-09T05:49:27.192Z,18.54
2018-05-09T05:51:54.834Z,18.60
2018-05-09T05:54:22.465Z,18.64
2018-05-09T05:56:50.118Z,18.68
2018-05-09T05:59:17.718Z,18.75
2018-05-09T06:01:45.359Z,18.89
2018-05-09T06:04:13.046Z,18.96
2018-05-09T06:06:40.726Z,19.07
2018-05-09T06:09:08.377Z,19.26
2018-05-09T06:11:35.988Z,19.41
2018-05-09T06:14:03.644Z,19.47
2018-05-09T06:16:31.286Z,19.44
2018-05-09T06:18:58.932Z,19.44
2018-05-09T06:21:26.552Z,19.46
2018-05-09T06:23:54.296Z,19.48
2018-05-09T06:26:21.848Z,19.47
2018-05-09T06:28:49.494Z,19.49
2018-05-09T06:31:17.149Z,19.62
2018-05-09T06:33:44.774Z,19.73
2018-05-09T06:36:12.360Z,19.74
2018-05-09T06:38:40.011Z,19.76
2018-05-09T06:41:07.788Z,19.82
2018-05-09T06:43:35.429Z,19.88
2018-05-09T06:46:03.021Z,19.99
2018-05-09T06:48:30.677Z,20.02
2018-05-09T06:50:58.284Z,20.11
2018-05-09T06:53:25.971Z,20.18
2018-05-09T06:55:53.769Z,20.29
2018-05-09T06:58:21.373Z,20.28
2018-05-09T07:00:49.002Z,20.40
2018-05-09T07:03:16.623Z,20.47
2018-05-09T07:05:44.250Z,20.60
2018-05-09T07:08:11.973Z,20.71
2018-05-09T07:10:39.614Z,20.82
2018-05-09T07:13:07.206Z,20.94
2018-05-09T07:15:34.887Z,21.00
2018-05-09T07:18:02.489Z,21.13
2018-05-09T07:20:30.125Z,21.24
2018-05-09T07:22:57.748Z,21.32
2018-05-09T07:25:25.394Z,21.41
2018-05-09T07:27:53.001Z,21.43
2018-05-09T07:30:20.694Z,21.51
2018-05-09T07:32:48.343Z,21.55
2018-05-09T07:35:15.981Z,21.60
2018-05-09T07:37:43.594Z,21.66
2018-05-09T07:40:11.244Z,21.74
2018-05-09T07:42:38.855Z,21.79
2018-05-09T07:45:06.512Z,21.88
2018-05-09T07:47:34.245Z,21.88
2018-05-09T07:50:01.869Z,21.90
2018-05-09T07:52:29.505Z,21.95
2018-05-09T07:54:57.095Z,21.97
2018-05-09T07:57:24.733Z,22.01
2018-05-09T07:59:52.346Z,22.07
2018-05-09T08:02:19.985Z,22.17
2018-05-09T08:04:47.581Z,22.33
2018-05-09T08:07:15.205Z,22.46
2018-05-09T08:09:42.799Z,22.48
2018-05-09T08:12:10.559Z,22.53
2018-05-09T08:14:38.157Z,22.51
2018-05-09T08:17:05.805Z,22.61
2018-05-09T08:19:33.393Z,22.66
2018-05-09T08:22:01.020Z,22.74
2018-05-09T08:24:28.679Z,22.63
2018-05-09T08:26:56.295Z,22.58
2018-05-09T08:29:23.886Z,22.63
2018-05-09T08:31:51.541Z,22.63
2018-05-09T08:34:19.136Z,22.69
2018-05-09T08:36:46.807Z,22.68
2018-05-09T08:39:14.419Z,22.71
2018-05-09T08:41:42.015Z,22.86
2018-05-09T08:44:09.693Z,22.96
2018-05-09T08:46:37.285Z,22.99
2018-05-09T08:49:04.942Z,23.00
2018-05-09T08:51:32.555Z,23.07
2018-05-09T08:54:00.349Z,23.25
2018-05-09T08:56:27.953Z,23.24
2018-05-09T08:58:55.573Z,23.18
2018-05-09T09:01:23.206Z,23.24
2018-05-09T09:03:50.845Z,23.39
2018-05-09T09:06:18.457Z,23.48
2018-05-09T09:08:46.222Z,23.58
2018-05-09T09:11:13.894Z,23.48
2018-05-09T09:13:41.532Z,23.50
2018-05-09T09:16:09.137Z,23.58
2018-05-09T09:18:36.852Z,23.61
2018-05-09T09:21:04.491Z,23.75
2018-05-09T09:23:32.085Z,23.93
2018-05-09T09:25:59.786Z,24.11
2018-05-09T09:28:27.445Z,24.16
2018-05-09T09:30:55.076Z,24.32
2018-05-09T09:33:22.659Z,24.50
2018-05-09T09:35:50.429Z,24.57
2018-05-09T09:38:18.025Z,24.62
2018-05-09T09:40:45.860Z,24.61
2018-05-09T09:43:13.481Z,24.88
2018-05-09T09:45:41.145Z,25.19
2018-05-09T09:48:08.733Z,25.26
2018-05-09T09:50:36.454Z,25.41
2018-05-09T09:53:04.103Z,25.57
2018-05-09T09:55:31.866Z,25.68
2018-05-09T09:57:59.485Z,25.82
2018-05-09T10:00:27.157Z,26.05
2018-05-09T10:02:54.783Z,26.27
2018-05-09T10:05:22.517Z,26.47
2018-05-09T10:07:50.147Z,26.26
2018-05-09T10:10:17.776Z,26.21
2018-05-09T10:12:45.410Z,26.04
2018-05-09T10:15:13.013Z,26.14
2018-05-09T10:17:40.666Z,26.45
2018-05-09T10:20:08.276Z,26.47
2018-05-09T10:22:35.962Z,26.56
2018-05-09T10:25:03.545Z,26.63
2018-05-09T10:27:31.180Z,26.78
2018-05-09T10:29:58.832Z,26.67
2018-05-09T10:32:26.600Z,26.62
2018-05-09T10:34:54.352Z,26.83
2018-05-09T10:37:21.984Z,27.05
2018-05-09T10:39:49.649Z,27.34
2018-05-09T10:42:17.265Z,27.72
2018-05-09T10:44:45.151Z,27.88
2018-05-09T10:47:12.750Z,28.08
2018-05-09T10:49:40.381Z,28.26
2018-05-09T10:52:07.989Z,28.28
2018-05-09T10:54:35.634Z,27.68
2018-05-09T10:57:03.253Z,27.73
2018-05-09T10:59:30.860Z,27.75
2018-05-09T11:01:58.521Z,28.01
2018-05-09T11:04:26.152Z,28.05
2018-05-09T11:06:53.869Z,28.43
2018-05-09T11:09:21.643Z,28.45
2018-05-09T11:11:49.228Z,28.81
2018-05-09T11:14:16.877Z,28.86
2018-05-09T11:16:44.534Z,28.97
2018-05-09T11:19:12.379Z,28.93
2018-05-09T11:21:39.977Z,29.34
2018-05-09T11:24:07.628Z,29.70
2018-05-09T11:26:35.249Z,29.80
2018-05-09T11:29:02.893Z,29.53
2018-05-09T11:31:30.553Z,29.44
2018-05-09T11:33:58.204Z,29.45
2018-05-09T11:36:25.821Z,29.70
2018-05-09T11:38:53.412Z,30.00
2018-05-09T11:41:21.029Z,29.99
2018-05-09T11:43:48.647Z,30.10
2018-05-09T11:46:16.300Z,29.93
2018-05-09T11:48:43.900Z,29.84
2018-05-09T11:51:11.710Z,29.74
2018-05-09T11:53:39.328Z,29.73
2018-05-09T11:56:06.977Z,29.51
2018-05-09T11:58:34.586Z,29.60
2018-05-09T12:01:02.216Z,29.75
2018-05-09T12:03:29.814Z,30.18
2018-05-09T12:05:57.577Z,30.20
2018-05-09T12:08:25.205Z,30.21
2018-05-09T12:10:53.004Z,29.63
2018-05-09T12:13:20.476Z,29.82
2018-05-09T12:15:48.149Z,30.18
2018-05-09T12:18:15.806Z,30.49
2018-05-09T12:20:43.411Z,30.95
2018-05-09T12:23:11.055Z,31.24
2018-05-09T12:25:38.657Z,31.36
2018-05-09T12:28:06.292Z,31.14
2018-05-09T12:30:33.892Z,31.06
2018-05-09T12:33:01.536Z,30.93
2018-05-09T12:35:29.161Z,30.67
2018-05-09T12:37:57.003Z,30.89
2018-05-09T12:40:24.596Z,31.29
2018-05-09T12:42:52.370Z,31.06
2018-05-09T12:45:20.057Z,31.00
2018-05-09T12:47:47.713Z,30.83
2018-05-09T12:50:15.317Z,30.60
2018-05-09T12:52:42.984Z,30.12
2018-05-09T12:55:10.672Z,29.90
2018-05-09T12:57:38.434Z,30.18
2018-05-09T13:00:06.026Z,30.74
2018-05-09T13:02:33.681Z,31.05
2018-05-09T13:05:01.278Z,31.33
2018-05-09T13:07:28.945Z,31.78
2018-05-09T13:09:56.590Z,32.09
2018-05-09T13:12:24.197Z,32.37
2018-05-09T13:14:51.873Z,32.75
2018-05-09T13:17:19.472Z,32.08
2018-05-09T13:19:47.147Z,32.03
2018-05-09T13:22:14.822Z,31.99
2018-05-09T13:24:42.465Z,32.28
2018-05-09T13:27:10.118Z,32.42
2018-05-09T13:29:37.742Z,33.05
2018-05-09T13:32:05.338Z,33.27
2018-05-09T13:34:33.022Z,32.84
2018-05-09T13:37:00.646Z,31.64
2018-05-09T13:39:28.346Z,30.64
2018-05-09T13:41:55.990Z,30.15
2018-05-09T13:44:23.769Z,29.78
2018-05-09T13:46:51.421Z,29.66
2018-05-09T13:49:19.041Z,29.53
2018-05-09T13:51:46.748Z,29.30
2018-05-09T13:54:14.353Z,29.14
2018-05-09T13:56:41.981Z,29.08
2018-05-09T13:59:09.629Z,29.10
2018-05-09T14:01:37.258Z,29.06
2018-05-09T14:04:04.893Z,29.03
2018-05-09T14:06:32.566Z,29.48
2018-05-09T14:09:00.183Z,30.21
2018-05-09T14:11:27.828Z,30.72
2018-05-09T14:13:55.445Z,31.04
2018-05-09T14:16:23.074Z,31.30
2018-05-09T14:18:50.698Z,31.66
2018-05-09T14:21:18.337Z,32.13
2018-05-09T14:23:45.969Z,32.42
2018-05-09T14:26:13.589Z,31.84
2018-05-09T14:28:41.209Z,31.07
2018-05-09T14:31:08.891Z,30.62
2018-05-09T14:33:36.536Z,30.50
2018-05-09T14:36:04.191Z,30.89
2018-05-09T14:38:31.789Z,31.26
2018-05-09T14:40:59.443Z,31.44
2018-05-09T14:43:27.161Z,31.64
2018-05-09T14:45:54.784Z,31.52
2018-05-09T14:48:22.425Z,31.66
2018-05-09T14:50:50.090Z,31.75
2018-05-09T14:53:17.755Z,31.87
2018-05-09T14:55:45.340Z,31.75
2018-05-09T14:58:12.976Z,31.90
2018-05-09T15:00:40.584Z,31.69
2018-05-09T15:03:08.235Z,31.36
2018-05-09T15:05:35.825Z,31.18
2018-05-09T15:08:03.493Z,31.81
2018-05-09T15:10:31.173Z,31.58
2018-05-09T15:12:58.794Z,31.03
2018-05-09T15:15:26.521Z,30.57
2018-05-09T15:17:54.163Z,30.70
2018-05-09T15:20:21.776Z,30.55
2018-05-09T15:22:49.416Z,29.96
2018-05-09T15:25:17.031Z,30.13
2018-05-09T15:27:44.653Z,30.75
2018-05-09T15:30:12.345Z,31.42
2018-05-09T15:32:39.996Z,31.59
2018-05-09T15:35:07.627Z,31.63
2018-05-09T15:37:35.243Z,32.05
2018-05-09T15:40:02.876Z,32.30
2018-05-09T15:42:30.492Z,31.91
2018-05-09T15:44:58.133Z,32.14
2018-05-09T15:47:25.732Z,32.71
2018-05-09T15:49:53.400Z,33.17
2018-05-09T15:52:20.981Z,33.29
2018-05-09T15:54:48.832Z,33.21
2018-05-09T15:57:16.527Z,32.93
2018-05-09T15:59:44.164Z,32.87
2018-05-09T16:02:11.744Z,32.69
2018-05-09T16:04:39.377Z,32.60
2018-05-09T16:07:07.132Z,32.23
2018-05-09T16:09:34.761Z,32.21
2018-05-09T16:12:02.348Z,31.78
2018-05-09T16:14:30.062Z,31.40
2018-05-09T16:16:57.693Z,31.47
2018-05-09T16:19:25.375Z,31.47
2018-05-09T16:21:52.969Z,31.34
2018-05-09T16:24:20.632Z,31.34
2018-05-09T16:26:48.281Z,31.15
2018-05-09T16:29:15.874Z,31.39
2018-05-09T16:31:43.514Z,31.72
2018-05-09T16:34:11.112Z,31.40
2018-05-09T16:36:38.753Z,31.30
2018-05-09T16:39:06.449Z,31.22
2018-05-09T16:41:34.085Z,31.21
2018-05-09T16:44:01.694Z,31.10
2018-05-09T16:46:29.321Z,31.04
2018-05-09T16:48:56.930Z,30.80
2018-05-09T16:51:24.604Z,30.69
2018-05-09T16:53:52.194Z,30.41
2018-05-09T16:56:19.836Z,30.39
2018-05-09T16:58:47.437Z,30.56
2018-05-09T17:01:15.111Z,30.92
2018-05-09T17:03:42.729Z,31.10
2018-05-09T17:06:10.376Z,31.07
2018-05-09T17:08:37.991Z,30.92
2018-05-09T17:11:05.575Z,30.40
2018-05-09T17:13:33.225Z,30.51
2018-05-09T17:16:00.832Z,30.57
2018-05-09T17:18:28.494Z,30.48
2018-05-09T17:20:56.125Z,30.09
2018-05-09T17:23:23.780Z,29.60
2018-05-09T17:25:51.397Z,29.26
2018-05-09T17:28:19.066Z,29.09
2018-05-09T17:30:46.682Z,28.89
2018-05-09T17:33:14.318Z,28.76
2018-05-09T17:35:41.914Z,28.51
2018-05-09T17:38:09.530Z,28.22
2018-05-09T17:40:37.126Z,28.15
2018-05-09T17:43:04.752Z,28.10
2018-05-09T17:45:32.340Z,28.03
2018-05-09T17:48:00.068Z,27.99
2018-05-09T17:50:27.653Z,27.92
2018-05-09T17:52:55.312Z,27.94
2018-05-09T17:55:22.953Z,28.08
2018-05-09T17:57:50.557Z,28.05
2018-05-09T18:00:18.194Z,28.07
2018-05-09T18:02:45.788Z,27.98
2018-05-09T18:05:13.424Z,27.88
2018-05-09T18:07:41.038Z,27.75
2018-05-09T18:10:08.666Z,27.59
2018-05-09T18:12:36.281Z,27.58
2018-05-09T18:15:03.957Z,27.56
2018-05-09T18:17:31.624Z,27.43
2018-05-09T18:19:59.283Z,27.31
2018-05-09T18:22:26.881Z,27.29
2018-05-09T18:24:54.500Z,27.24
2018-05-09T18:27:22.199Z,27.11
2018-05-09T18:29:49.832Z,26.94
2018-05-09T18:32:17.453Z,26.80
2018-05-09T18:34:45.083Z,26.87
2018-05-09T18:37:12.737Z,26.95
2018-05-09T18:39:40.354Z,26.94
2018-05-09T18:42:08.004Z,26.83
2018-05-09T18:44:35.598Z,26.79
2018-05-09T18:47:03.241Z,26.67
2018-05-09T18:49:30.864Z,26.47
2018-05-09T18:51:58.576Z,26.33
2018-05-09T18:54:26.178Z,26.37
2018-05-09T18:56:53.809Z,26.34
2018-05-09T18:59:21.486Z,26.30
2018-05-09T19:01:49.125Z,26.33
2018-05-09T19:04:16.837Z,26.38
2018-05-09T19:06:44.493Z,26.41
2018-05-09T19:09:12.097Z,26.42
2018-05-09T19:11:39.722Z,26.38
2018-05-09T19:14:07.342Z,26.22
2018-05-09T19:16:34.986Z,26.02
2018-05-09T19:19:02.693Z,25.82
2018-05-09T19:21:30.309Z,25.57
2018-05-09T19:23:57.943Z,25.42
2018-05-09T19:26:25.593Z,25.41
2018-05-09T19:28:53.254Z,25.25
2018-05-09T19:31:20.888Z,25.17
2018-05-09T19:33:48.517Z,25.03
2018-05-09T19:36:16.117Z,24.86
2018-05-09T19:38:43.835Z,24.79
2018-05-09T19:41:11.392Z,24.62
2018-05-09T19:43:39.083Z,24.53
2018-05-09T19:46:06.750Z,24.60
2018-05-09T19:48:34.403Z,24.57
2018-05-09T19:51:01.989Z,24.58
2018-05-09T19:53:29.625Z,24.73
2018-05-09T19:55:57.377Z,24.77
2018-05-09T19:58:25.003Z,24.76
2018-05-09T20:00:52.670Z,24.81
2018-05-09T20:03:20.312Z,24.79
2018-05-09T20:05:47.995Z,24.78
2018-05-09T20:08:15.600Z,24.77
2018-05-09T20:10:43.233Z,24.75
2018-05-09T20:13:10.843Z,24.69
2018-05-09T20:15:38.494Z,24.65
2018-05-09T20:18:06.097Z,24.67
2018-05-09T20:20:33.840Z,24.66
2018-05-09T20:23:01.462Z,24.76
2018-05-09T20:25:29.144Z,24.84
2018-05-09T20:27:56.829Z,24.94
2018-05-09T20:30:30.353Z,24.96
2018-05-09T20:32:57.996Z,25.00
2018-05-09T20:35:25.648Z,25.03
2018-05-09T20:37:53.381Z,25.15
2018-05-09T20:40:21.052Z,25.23
2018-05-09T20:42:48.670Z,25.17
2018-05-09T20:45:16.329Z,24.83
2018-05-09T20:47:43.936Z,24.72
2018-05-09T20:50:11.563Z,24.68
2018-05-09T20:52:39.265Z,24.77
2018-05-09T20:58:06.717Z,24.76
2018-05-09T21:00:34.568Z,24.89
2018-05-09T21:03:02.168Z,24.84
2018-05-09T21:05:29.791Z,24.76
2018-05-09T21:07:57.513Z,24.88
2018-05-09T21:10:25.141Z,24.84
2018-05-09T21:12:52.815Z,24.97
2018-05-09T21:15:20.421Z,24.98
2018-05-09T21:17:48.088Z,24.98
2018-05-09T21:20:15.780Z,24.92
2018-05-09T21:22:43.346Z,24.71
2018-05-09T21:25:10.967Z,24.76
2018-05-09T21:27:38.604Z,24.72
2018-05-09T21:30:06.224Z,24.59
2018-05-09T21:32:33.853Z,24.66
2018-05-09T21:35:01.488Z,24.57
2018-05-09T21:37:29.119Z,24.48
2018-05-09T21:39:56.787Z,24.43
2018-05-09T21:42:24.388Z,24.42
2018-05-09T21:44:52.298Z,24.43
2018-05-09T21:47:19.915Z,24.33
2018-05-09T21:49:47.634Z,24.36
2018-05-09T21:52:15.293Z,24.13
2018-05-09T21:54:43.034Z,24.15
2018-05-09T21:57:10.665Z,24.06
2018-05-09T21:59:38.312Z,24.10
2018-05-09T22:02:05.931Z,24.14
2018-05-09T22:04:33.590Z,24.00
2018-05-09T22:07:01.282Z,24.01
2018-05-09T22:09:28.921Z,23.92
2018-05-09T22:11:56.579Z,23.89
2018-05-09T22:14:24.180Z,23.92
2018-05-09T22:16:51.854Z,23.77
2018-05-09T22:19:19.450Z,23.56
2018-05-09T22:21:47.095Z,23.29
2018-05-09T22:24:14.802Z,23.32
2018-05-09T22:26:42.451Z,23.27
2018-05-09T22:29:10.086Z,23.15
2018-05-09T22:31:37.732Z,23.13
2018-05-09T22:34:05.429Z,23.07
2018-05-09T22:36:33.193Z,22.91
2018-05-09T22:39:00.833Z,22.81
2018-05-09T22:41:28.634Z,22.77
2018-05-09T22:43:56.242Z,22.62
2018-05-09T22:46:23.902Z,22.36
2018-05-09T22:48:51.513Z,22.28
2018-05-09T22:51:19.165Z,22.33
2018-05-09T22:53:46.819Z,22.47
2018-05-09T22:56:14.435Z,22.47
2018-05-09T22:58:42.478Z,22.53
2018-05-09T23:01:10.144Z,22.55
2018-05-09T23:03:37.784Z,22.43
2018-05-09T23:06:05.396Z,22.21
2018-05-09T23:08:33.032Z,22.05
2018-05-09T23:11:00.644Z,21.94
2018-05-09T23:13:28.340Z,21.96
2018-05-09T23:15:55.940Z,21.78
2018-05-09T23:18:23.589Z,21.86
2018-05-09T23:20:51.281Z,21.71
2018-05-09T23:23:18.944Z,21.48
2018-05-09T23:25:46.575Z,21.34
2018-05-09T23:28:14.236Z,21.31
2018-05-09T23:30:41.889Z,21.29
2018-05-09T23:33:09.547Z,21.23
2018-05-09T23:35:37.148Z,21.31
2018-05-09T23:38:04.952Z,21.34
2018-05-09T23:40:32.601Z,21.30
2018-05-09T23:43:00.288Z,21.23
2018-05-09T23:45:27.983Z,21.02
2018-05-09T23:47:55.659Z,20.87
2018-05-09T23:50:23.317Z,20.75
2018-05-09T23:52:50.913Z,20.61
2018-05-09T23:55:18.571Z,20.67
2018-05-09T23:57:46.221Z,20.45
